sensor_id;sensor_type;location;lat;lon;timestamp;pressure;altitude;pressure_sealevel;temperature;humidity
58018;BME280;43810;50.860;19.226;2023-08-31T00:00:11;97872.03;;;15.02;100.00
58018;BME280;43810;50.860;19.226;2023-08-31T00:02:58;97871.25;;;14.94;100.00
58018;BME280;43810;50.860;19.226;2023-08-31T00:05:23;97865.88;;;14.91;100.00
58018;BME280;43810;50.860;19.226;2023-08-31T00:07:52;97870.81;;;14.89;100.00
58018;BME280;43810;50.860;19.226;2023-08-31T00:10:18;97865.47;;;14.89;100.00
58018;BME280;43810;50.860;19.226;2023-08-31T00:12:44;97875.41;;;14.88;100.00
58018;BME280;43810;50.860;19.226;2023-08-31T00:15:10;97867.34;;;14.85;100.00
58018;BME280;43810;50.860;19.226;2023-08-31T00:17:35;97871.94;;;14.84;100.00
58018;BME280;43810;50.860;19.226;2023-08-31T00:20:01;97866.97;;;14.86;100.00
58018;BME280;43810;50.860;19.226;2023-08-31T00:22:31;97870.03;;;14.85;100.00
58018;BME280;43810;50.860;19.226;2023-08-31T00:24:57;97878.81;;;14.82;100.00
58018;BME280;43810;50.860;19.226;2023-08-31T00:27:22;97877.25;;;14.77;100.00
58018;BME280;43810;50.860;19.226;2023-08-31T00:29:48;97866.91;;;14.75;100.00
58018;BME280;43810;50.860;19.226;2023-08-31T00:32:15;97868.41;;;14.73;100.00
58018;BME280;43810;50.860;19.226;2023-08-31T00:34:41;97873.78;;;14.76;100.00
58018;BME280;43810;50.860;19.226;2023-08-31T00:37:06;97863.53;;;14.82;100.00
58018;BME280;43810;50.860;19.226;2023-08-31T00:39:33;97864.66;;;14.81;100.00
58018;BME280;43810;50.860;19.226;2023-08-31T00:41:59;97861.97;;;14.77;100.00
58018;BME280;43810;50.860;19.226;2023-08-31T00:44:25;97864.59;;;14.74;100.00
58018;BME280;43810;50.860;19.226;2023-08-31T00:46:51;97866.94;;;14.79;100.00
58018;BME280;43810;50.860;19.226;2023-08-31T00:49:17;97868.41;;;14.73;100.00
58018;BME280;43810;50.860;19.226;2023-08-31T00:51:45;97865.38;;;14.74;100.00
58018;BME280;43810;50.860;19.226;2023-08-31T00:54:16;97869.22;;;14.77;100.00
58018;BME280;43810;50.860;19.226;2023-08-31T00:56:43;97871.13;;;14.76;100.00
58018;BME280;43810;50.860;19.226;2023-08-31T00:59:09;97876.09;;;14.78;100.00
58018;BME280;43810;50.860;19.226;2023-08-31T01:01:42;97871.53;;;14.78;100.00
58018;BME280;43810;50.860;19.226;2023-08-31T01:04:31;97880.31;;;14.79;100.00
58018;BME280;43810;50.860;19.226;2023-08-31T01:12:19;97875.66;;;14.69;100.00
58018;BME280;43810;50.860;19.226;2023-08-31T01:14:54;97881.44;;;14.78;100.00
58018;BME280;43810;50.860;19.226;2023-08-31T01:17:26;97884.47;;;14.73;100.00
58018;BME280;43810;50.860;19.226;2023-08-31T01:19:55;97881.81;;;14.76;100.00
58018;BME280;43810;50.860;19.226;2023-08-31T01:25:01;97889.06;;;14.76;100.00
58018;BME280;43810;50.860;19.226;2023-08-31T01:27:31;97878.81;;;14.82;100.00
58018;BME280;43810;50.860;19.226;2023-08-31T01:29:57;97880.31;;;14.79;100.00
58018;BME280;43810;50.860;19.226;2023-08-31T01:32:23;97879.19;;;14.80;100.00
58018;BME280;43810;50.860;19.226;2023-08-31T01:34:50;97877.63;;;14.79;100.00
58018;BME280;43810;50.860;19.226;2023-08-31T01:37:34;97881.09;;;14.80;100.00
58018;BME280;43810;50.860;19.226;2023-08-31T01:40:12;97876.88;;;14.78;100.00
58018;BME280;43810;50.860;19.226;2023-08-31T01:42:42;97880.31;;;14.79;100.00
58018;BME280;43810;50.860;19.226;2023-08-31T01:45:10;97876.91;;;14.82;100.00
58018;BME280;43810;50.860;19.226;2023-08-31T01:47:36;97873.78;;;14.76;100.00
58018;BME280;43810;50.860;19.226;2023-08-31T01:50:02;97877.63;;;14.79;100.00
58018;BME280;43810;50.860;19.226;2023-08-31T01:52:28;97868.88;;;14.82;100.00
58018;BME280;43810;50.860;19.226;2023-08-31T01:54:54;97868.81;;;14.75;100.00
58018;BME280;43810;50.860;19.226;2023-08-31T01:57:19;97858.50;;;14.70;100.00
58018;BME280;43810;50.860;19.226;2023-08-31T01:59:45;97854.28;;;14.69;100.00
58018;BME280;43810;50.860;19.226;2023-08-31T02:02:11;97853.47;;;14.65;100.00
58018;BME280;43810;50.860;19.226;2023-08-31T02:04:37;97849.66;;;14.66;100.00
58018;BME280;43810;50.860;19.226;2023-08-31T02:07:03;97857.66;;;14.62;100.00
58018;BME280;43810;50.860;19.226;2023-08-31T02:09:28;97845.88;;;14.70;100.00
58018;BME280;43810;50.860;19.226;2023-08-31T02:11:54;97848.56;;;14.70;100.00
58018;BME280;43810;50.860;19.226;2023-08-31T02:14:20;97851.59;;;14.69;100.00
58018;BME280;43810;50.860;19.226;2023-08-31T02:16:46;97848.19;;;14.72;100.00
58018;BME280;43810;50.860;19.226;2023-08-31T02:19:11;97851.97;;;14.67;100.00
58018;BME280;43810;50.860;19.226;2023-08-31T02:21:37;97852.38;;;14.73;100.00
58018;BME280;43810;50.860;19.226;2023-08-31T02:24:04;97850.09;;;14.71;100.00
58018;BME280;43810;50.860;19.226;2023-08-31T02:26:30;97855.41;;;14.68;100.00
58018;BME280;43810;50.860;19.226;2023-08-31T02:28:56;97856.97;;;14.72;100.00
58018;BME280;43810;50.860;19.226;2023-08-31T02:31:21;97860.38;;;14.69;100.00
58018;BME280;43810;50.860;19.226;2023-08-31T02:33:47;97868.34;;;14.62;100.00
58018;BME280;43810;50.860;19.226;2023-08-31T02:36:14;97863.72;;;14.56;100.00
58018;BME280;43810;50.860;19.226;2023-08-31T02:38:40;97865.22;;;14.50;100.00
58018;BME280;43810;50.860;19.226;2023-08-31T02:41:05;97856.41;;;14.46;100.00
58018;BME280;43810;50.860;19.226;2023-08-31T02:43:31;97865.53;;;14.41;100.00
58018;BME280;43810;50.860;19.226;2023-08-31T02:46:01;97864.75;;;14.37;100.00
58018;BME280;43810;50.860;19.226;2023-08-31T02:48:27;97863.56;;;14.34;100.00
58018;BME280;43810;50.860;19.226;2023-08-31T02:50:53;97862.81;;;14.34;100.00
58018;BME280;43810;50.860;19.226;2023-08-31T02:53:19;97869.31;;;14.36;100.00
58018;BME280;43810;50.860;19.226;2023-08-31T02:55:45;97875.41;;;14.33;100.00
58018;BME280;43810;50.860;19.226;2023-08-31T02:58:11;97872.69;;;14.30;100.00
58018;BME280;43810;50.860;19.226;2023-08-31T03:00:37;97883.41;;;14.33;100.00
58018;BME280;43810;50.860;19.226;2023-08-31T03:03:08;97879.59;;;14.34;100.00
58018;BME280;43810;50.860;19.226;2023-08-31T03:05:34;97882.28;;;14.34;100.00
58018;BME280;43810;50.860;19.226;2023-08-31T03:08:00;97880.00;;;14.36;100.00
58018;BME280;43810;50.860;19.226;2023-08-31T03:10:26;97886.47;;;14.35;100.00
58018;BME280;43810;50.860;19.226;2023-08-31T03:12:52;97888.75;;;14.33;100.00
58018;BME280;43810;50.860;19.226;2023-08-31T03:15:17;97893.69;;;14.31;100.00
58018;BME280;43810;50.860;19.226;2023-08-31T03:17:43;97891.03;;;14.31;100.00
58018;BME280;43810;50.860;19.226;2023-08-31T03:20:09;97899.03;;;14.31;100.00
58018;BME280;43810;50.860;19.226;2023-08-31T03:22:35;97901.38;;;14.36;100.00
58018;BME280;43810;50.860;19.226;2023-08-31T03:25:01;97896.72;;;14.30;100.00
58018;BME280;43810;50.860;19.226;2023-08-31T03:27:27;97898.25;;;14.31;100.00
58018;BME280;43810;50.860;19.226;2023-08-31T03:29:53;97902.84;;;14.30;100.00
58018;BME280;43810;50.860;19.226;2023-08-31T03:32:19;97897.88;;;14.29;100.00
58018;BME280;43810;50.860;19.226;2023-08-31T03:34:44;97898.63;;;14.29;100.00
58018;BME280;43810;50.860;19.226;2023-08-31T03:37:10;97894.81;;;14.30;100.00
58018;BME280;43810;50.860;19.226;2023-08-31T03:39:36;97908.56;;;14.29;100.00
58018;BME280;43810;50.860;19.226;2023-08-31T03:42:03;97913.88;;;14.29;100.00
58018;BME280;43810;50.860;19.226;2023-08-31T03:44:28;97917.75;;;14.31;100.00
58018;BME280;43810;50.860;19.226;2023-08-31T03:46:54;97909.34;;;14.33;100.00
58018;BME280;43810;50.860;19.226;2023-08-31T03:49:20;97915.47;;;14.33;100.00
58018;BME280;43810;50.860;19.226;2023-08-31T03:51:46;97905.56;;;14.34;100.00
58018;BME280;43810;50.860;19.226;2023-08-31T03:54:11;97920.00;;;14.29;100.00
58018;BME280;43810;50.860;19.226;2023-08-31T03:56:38;97910.84;;;14.30;100.00
58018;BME280;43810;50.860;19.226;2023-08-31T03:59:05;97923.50;;;14.33;100.00
58018;BME280;43810;50.860;19.226;2023-08-31T04:01:31;97918.16;;;14.33;100.00
58018;BME280;43810;50.860;19.226;2023-08-31T04:03:57;97920.03;;;14.33;100.00
58018;BME280;43810;50.860;19.226;2023-08-31T04:06:23;97918.88;;;14.30;100.00
58018;BME280;43810;50.860;19.226;2023-08-31T04:08:48;97931.06;;;14.28;100.00
58018;BME280;43810;50.860;19.226;2023-08-31T04:11:14;97924.56;;;14.29;100.00
58018;BME280;43810;50.860;19.226;2023-08-31T04:13:40;97925.75;;;14.31;100.00
58018;BME280;43810;50.860;19.226;2023-08-31T04:16:06;97923.53;;;14.37;100.00
58018;BME280;43810;50.860;19.226;2023-08-31T04:18:31;97928.88;;;14.37;100.00
58018;BME280;43810;50.860;19.226;2023-08-31T04:20:57;97921.69;;;14.45;100.00
58018;BME280;43810;50.860;19.226;2023-08-31T04:23:24;97930.44;;;14.41;100.00
58018;BME280;43810;50.860;19.226;2023-08-31T04:25:50;97932.38;;;14.45;100.00
58018;BME280;43810;50.860;19.226;2023-08-31T04:28:17;97932.00;;;14.46;100.00
58018;BME280;43810;50.860;19.226;2023-08-31T04:30:42;97934.69;;;14.46;100.00
58018;BME280;43810;50.860;19.226;2023-08-31T04:33:10;97939.25;;;14.46;100.00
58018;BME280;43810;50.860;19.226;2023-08-31T04:35:36;97933.47;;;14.40;100.00
58018;BME280;43810;50.860;19.226;2023-08-31T04:38:01;97930.41;;;14.38;100.00
58018;BME280;43810;50.860;19.226;2023-08-31T04:40:28;97930.03;;;14.39;100.00
58018;BME280;43810;50.860;19.226;2023-08-31T04:42:56;97927.34;;;14.39;100.00
58018;BME280;43810;50.860;19.226;2023-08-31T04:45:22;97929.66;;;14.37;100.00
58018;BME280;43810;50.860;19.226;2023-08-31T04:47:48;97926.19;;;14.37;100.00
58018;BME280;43810;50.860;19.226;2023-08-31T04:50:16;97936.88;;;14.37;100.00
58018;BME280;43810;50.860;19.226;2023-08-31T04:52:42;97932.63;;;14.32;100.00
58018;BME280;43810;50.860;19.226;2023-08-31T04:55:09;97939.94;;;14.35;100.00
58018;BME280;43810;50.860;19.226;2023-08-31T04:57:36;97936.13;;;14.36;100.00
58018;BME280;43810;50.860;19.226;2023-08-31T05:00:02;97940.78;;;14.47;100.00
58018;BME280;43810;50.860;19.226;2023-08-31T05:02:28;97939.06;;;14.68;100.00
58018;BME280;43810;50.860;19.226;2023-08-31T05:04:54;97936.22;;;14.98;100.00
58018;BME280;43810;50.860;19.226;2023-08-31T05:07:20;97937.16;;;15.27;100.00
58018;BME280;43810;50.860;19.226;2023-08-31T05:09:46;97941.53;;;15.49;100.00
58018;BME280;43810;50.860;19.226;2023-08-31T05:12:12;97940.78;;;15.60;100.00
58018;BME280;43810;50.860;19.226;2023-08-31T05:14:37;97926.72;;;15.80;100.00
58018;BME280;43810;50.860;19.226;2023-08-31T05:17:05;97926.38;;;15.96;100.00
58018;BME280;43810;50.860;19.226;2023-08-31T05:19:31;97932.56;;;16.29;99.18
58018;BME280;43810;50.860;19.226;2023-08-31T05:21:57;97942.59;;;16.67;96.63
58018;BME280;43810;50.860;19.226;2023-08-31T05:24:23;97938.38;;;17.02;94.60
58018;BME280;43810;50.860;19.226;2023-08-31T05:26:49;97940.25;;;17.22;93.29
58018;BME280;43810;50.860;19.226;2023-08-31T05:29:15;97938.72;;;17.21;92.90
58018;BME280;43810;50.860;19.226;2023-08-31T05:31:41;97947.91;;;17.17;92.50
58018;BME280;43810;50.860;19.226;2023-08-31T05:34:09;97940.59;;;17.32;92.09
58018;BME280;43810;50.860;19.226;2023-08-31T05:36:35;97953.25;;;17.27;92.53
58018;BME280;43810;50.860;19.226;2023-08-31T05:39:02;97954.78;;;17.28;90.78
58018;BME280;43810;50.860;19.226;2023-08-31T05:41:28;97954.44;;;17.26;91.99
58018;BME280;43810;50.860;19.226;2023-08-31T05:43:54;97958.66;;;17.20;91.31
58018;BME280;43810;50.860;19.226;2023-08-31T05:46:19;97963.25;;;17.06;92.04
58018;BME280;43810;50.860;19.226;2023-08-31T05:48:45;97964.06;;;17.03;93.09
58018;BME280;43810;50.860;19.226;2023-08-31T05:51:11;97973.25;;;16.98;92.62
58018;BME280;43810;50.860;19.226;2023-08-31T05:53:37;97974.03;;;16.91;93.35
58018;BME280;43810;50.860;19.226;2023-08-31T05:56:03;97970.19;;;16.85;93.13
58018;BME280;43810;50.860;19.226;2023-08-31T05:58:33;97970.97;;;16.89;93.94
58018;BME280;43810;50.860;19.226;2023-08-31T06:01:00;97977.06;;;17.04;93.44
58018;BME280;43810;50.860;19.226;2023-08-31T06:03:27;97983.22;;;17.08;93.65
58018;BME280;43810;50.860;19.226;2023-08-31T06:05:53;97980.09;;;17.42;90.82
58018;BME280;43810;50.860;19.226;2023-08-31T06:08:19;97991.59;;;17.46;92.08
58018;BME280;43810;50.860;19.226;2023-08-31T06:10:44;97988.88;;;17.63;90.45
58018;BME280;43810;50.860;19.226;2023-08-31T06:13:10;97994.63;;;17.73;90.39
58018;BME280;43810;50.860;19.226;2023-08-31T06:15:36;97997.63;;;17.85;88.93
58018;BME280;43810;50.860;19.226;2023-08-31T06:18:02;97994.38;;;18.26;89.24
58018;BME280;43810;50.860;19.226;2023-08-31T06:20:28;97998.06;;;18.53;86.20
58018;BME280;43810;50.860;19.226;2023-08-31T06:22:54;97993.50;;;18.43;84.87
58018;BME280;43810;50.860;19.226;2023-08-31T06:25:19;98002.31;;;18.47;86.30
58018;BME280;43810;50.860;19.226;2023-08-31T06:27:47;97996.09;;;18.57;83.92
58018;BME280;43810;50.860;19.226;2023-08-31T06:30:12;97994.16;;;18.61;85.42
58018;BME280;43810;50.860;19.226;2023-08-31T06:32:46;97994.91;;;18.65;85.07
58018;BME280;43810;50.860;19.226;2023-08-31T06:35:13;97996.56;;;18.45;84.53
58018;BME280;43810;50.860;19.226;2023-08-31T06:37:39;98002.03;;;18.31;86.07
58018;BME280;43810;50.860;19.226;2023-08-31T06:40:06;98006.22;;;18.35;85.95
58018;BME280;43810;50.860;19.226;2023-08-31T06:42:34;98000.84;;;18.39;85.51
58018;BME280;43810;50.860;19.226;2023-08-31T06:45:01;98001.69;;;18.29;85.95
58018;BME280;43810;50.860;19.226;2023-08-31T06:47:27;98003.59;;;18.25;85.20
58018;BME280;43810;50.860;19.226;2023-08-31T06:49:52;98008.97;;;18.25;86.68
58018;BME280;43810;50.860;19.226;2023-08-31T06:52:18;98006.34;;;18.18;85.85
58018;BME280;43810;50.860;19.226;2023-08-31T06:54:44;98003.22;;;18.19;86.44
58018;BME280;43810;50.860;19.226;2023-08-31T06:57:10;98001.34;;;18.16;85.81
58018;BME280;43810;50.860;19.226;2023-08-31T06:59:36;97999.06;;;18.11;85.87
58018;BME280;43810;50.860;19.226;2023-08-31T07:02:02;97993.69;;;18.15;85.52
58018;BME280;43810;50.860;19.226;2023-08-31T07:04:27;97989.06;;;18.19;85.84
58018;BME280;43810;50.860;19.226;2023-08-31T07:06:53;97997.13;;;18.19;85.82
58018;BME280;43810;50.860;19.226;2023-08-31T07:09:19;97992.97;;;18.04;85.33
58018;BME280;43810;50.860;19.226;2023-08-31T07:11:45;97998.34;;;18.04;86.82
58018;BME280;43810;50.860;19.226;2023-08-31T07:14:11;97996.47;;;17.86;85.75
58018;BME280;43810;50.860;19.226;2023-08-31T07:16:37;98008.44;;;17.71;88.08
58018;BME280;43810;50.860;19.226;2023-08-31T07:19:02;98001.53;;;17.59;87.38
58018;BME280;43810;50.860;19.226;2023-08-31T07:21:28;98001.56;;;17.45;88.65
58018;BME280;43810;50.860;19.226;2023-08-31T07:23:54;98003.88;;;17.36;88.16
58018;BME280;43810;50.860;19.226;2023-08-31T07:26:21;98016.53;;;17.43;89.06
58018;BME280;43810;50.860;19.226;2023-08-31T07:28:47;98006.88;;;17.74;89.12
58018;BME280;43810;50.860;19.226;2023-08-31T07:31:13;98018.22;;;18.20;87.13
58018;BME280;43810;50.860;19.226;2023-08-31T07:33:39;98017.09;;;18.84;84.86
58018;BME280;43810;50.860;19.226;2023-08-31T07:36:05;98008.50;;;19.44;82.73
58018;BME280;43810;50.860;19.226;2023-08-31T07:38:32;98018.34;;;19.61;79.42
58018;BME280;43810;50.860;19.226;2023-08-31T07:40:58;98019.00;;;20.06;78.18
58018;BME280;43810;50.860;19.226;2023-08-31T07:43:25;98018.66;;;20.35;76.80
58018;BME280;43810;50.860;19.226;2023-08-31T07:45:52;98026.09;;;20.54;77.57
58018;BME280;43810;50.860;19.226;2023-08-31T07:48:21;98042.72;;;20.79;74.14
58018;BME280;43810;50.860;19.226;2023-08-31T07:50:47;98044.50;;;20.89;72.72
58018;BME280;43810;50.860;19.226;2023-08-31T07:53:14;98042.03;;;20.99;71.91
58018;BME280;43810;50.860;19.226;2023-08-31T07:55:40;98043.63;;;21.19;72.57
58018;BME280;43810;50.860;19.226;2023-08-31T07:58:06;98042.75;;;21.26;70.05
58018;BME280;43810;50.860;19.226;2023-08-31T08:00:32;98033.72;;;21.36;71.73
58018;BME280;43810;50.860;19.226;2023-08-31T08:02:58;98037.53;;;21.62;70.67
58018;BME280;43810;50.860;19.226;2023-08-31T08:05:24;98031.09;;;21.76;70.06
58018;BME280;43810;50.860;19.226;2023-08-31T08:07:50;98032.69;;;21.73;69.94
58018;BME280;43810;50.860;19.226;2023-08-31T08:10:16;98037.88;;;21.84;69.82
58018;BME280;43810;50.860;19.226;2023-08-31T08:12:42;98043.69;;;22.02;69.68
58018;BME280;43810;50.860;19.226;2023-08-31T08:15:12;98036.75;;;22.01;68.50
58018;BME280;43810;50.860;19.226;2023-08-31T08:17:38;98030.66;;;22.17;66.30
58018;BME280;43810;50.860;19.226;2023-08-31T08:20:06;98039.13;;;22.39;66.52
58018;BME280;43810;50.860;19.226;2023-08-31T08:22:32;98042.34;;;22.34;67.46
58018;BME280;43810;50.860;19.226;2023-08-31T08:24:59;98042.16;;;22.41;67.74
58018;BME280;43810;50.860;19.226;2023-08-31T08:27:25;98050.63;;;22.79;66.92
58018;BME280;43810;50.860;19.226;2023-08-31T08:29:51;98044.91;;;23.09;63.27
58018;BME280;43810;50.860;19.226;2023-08-31T08:32:16;98051.41;;;23.28;62.43
58018;BME280;43810;50.860;19.226;2023-08-31T08:34:42;98044.25;;;23.50;60.62
58018;BME280;43810;50.860;19.226;2023-08-31T08:37:08;98051.13;;;23.38;60.99
58018;BME280;43810;50.860;19.226;2023-08-31T08:39:34;98058.38;;;23.13;60.71
58018;BME280;43810;50.860;19.226;2023-08-31T08:42:01;98050.75;;;22.72;63.30
58018;BME280;43810;50.860;19.226;2023-08-31T08:44:33;98053.81;;;22.57;65.11
58018;BME280;43810;50.860;19.226;2023-08-31T08:47:01;98051.09;;;22.57;64.28
58018;BME280;43810;50.860;19.226;2023-08-31T08:49:28;98056.59;;;22.54;64.87
58018;BME280;43810;50.860;19.226;2023-08-31T08:51:56;98048.88;;;22.52;64.18
58018;BME280;43810;50.860;19.226;2023-08-31T08:54:22;98055.75;;;22.57;64.89
58018;BME280;43810;50.860;19.226;2023-08-31T08:56:48;98053.03;;;22.57;65.46
58018;BME280;43810;50.860;19.226;2023-08-31T08:59:14;98060.44;;;22.89;67.04
58018;BME280;43810;50.860;19.226;2023-08-31T09:01:40;98056.56;;;22.90;64.09
58018;BME280;43810;50.860;19.226;2023-08-31T09:04:06;98061.03;;;22.96;63.18
58018;BME280;43810;50.860;19.226;2023-08-31T09:06:32;98059.34;;;22.86;62.72
58018;BME280;43810;50.860;19.226;2023-08-31T09:08:58;98060.75;;;22.75;63.15
58018;BME280;43810;50.860;19.226;2023-08-31T09:11:25;98066.75;;;22.66;64.20
58018;BME280;43810;50.860;19.226;2023-08-31T09:13:51;98068.00;;;22.61;63.07
58018;BME280;43810;50.860;19.226;2023-08-31T09:16:30;98079.22;;;22.80;62.18
58018;BME280;43810;50.860;19.226;2023-08-31T09:18:56;98066.97;;;22.91;62.47
58018;BME280;43810;50.860;19.226;2023-08-31T09:21:22;98074.09;;;23.34;59.04
58018;BME280;43810;50.860;19.226;2023-08-31T09:24:00;98069.69;;;23.40;58.93
58018;BME280;43810;50.860;19.226;2023-08-31T09:26:25;98075.44;;;23.42;60.18
58018;BME280;43810;50.860;19.226;2023-08-31T09:28:52;98065.25;;;23.79;59.94
58018;BME280;43810;50.860;19.226;2023-08-31T09:31:18;98072.88;;;23.96;61.08
58018;BME280;43810;50.860;19.226;2023-08-31T09:33:51;98061.72;;;24.36;58.00
58018;BME280;43810;50.860;19.226;2023-08-31T09:36:17;98074.84;;;24.37;59.06
58018;BME280;43810;50.860;19.226;2023-08-31T09:38:43;98080.13;;;24.57;59.52
58018;BME280;43810;50.860;19.226;2023-08-31T09:41:09;98075.34;;;24.61;56.62
58018;BME280;43810;50.860;19.226;2023-08-31T09:43:35;98078.94;;;24.96;55.29
58018;BME280;43810;50.860;19.226;2023-08-31T09:46:03;98079.47;;;25.04;58.84
58018;BME280;43810;50.860;19.226;2023-08-31T09:48:30;98080.13;;;25.08;54.50
58018;BME280;43810;50.860;19.226;2023-08-31T09:50:56;98079.78;;;25.31;55.35
58018;BME280;43810;50.860;19.226;2023-08-31T09:53:26;98078.56;;;25.45;54.93
58018;BME280;43810;50.860;19.226;2023-08-31T09:55:54;98080.75;;;25.12;51.36
58018;BME280;43810;50.860;19.226;2023-08-31T09:58:21;98086.31;;;24.70;54.69
58018;BME280;43810;50.860;19.226;2023-08-31T10:00:49;98079.53;;;24.08;56.48
58018;BME280;43810;50.860;19.226;2023-08-31T10:03:15;98073.47;;;24.04;57.10
58018;BME280;43810;50.860;19.226;2023-08-31T10:05:47;98073.56;;;24.42;55.45
58018;BME280;43810;50.860;19.226;2023-08-31T10:08:14;98087.19;;;24.93;56.75
58018;BME280;43810;50.860;19.226;2023-08-31T10:10:40;98080.47;;;25.23;55.10
58018;BME280;43810;50.860;19.226;2023-08-31T10:13:07;98078.75;;;25.50;50.23
58018;BME280;43810;50.860;19.226;2023-08-31T10:15:34;98073.34;;;25.38;54.89
58018;BME280;43810;50.860;19.226;2023-08-31T10:18:04;98070.78;;;25.09;53.38
58018;BME280;43810;50.860;19.226;2023-08-31T10:20:31;98066.53;;;25.08;51.74
58018;BME280;43810;50.860;19.226;2023-08-31T10:22:58;98067.38;;;25.17;54.24
58018;BME280;43810;50.860;19.226;2023-08-31T10:25:24;98071.41;;;25.00;54.47
58018;BME280;43810;50.860;19.226;2023-08-31T10:27:52;98067.53;;;24.76;54.14
58018;BME280;43810;50.860;19.226;2023-08-31T10:35:48;98072.22;;;24.88;53.24
58018;BME280;43810;50.860;19.226;2023-08-31T10:38:31;98065.00;;;25.19;55.76
58018;BME280;43810;50.860;19.226;2023-08-31T10:41:24;98071.69;;;25.53;52.60
58018;BME280;43810;50.860;19.226;2023-08-31T10:43:55;98070.88;;;25.65;51.62
58018;BME280;43810;50.860;19.226;2023-08-31T10:46:31;98059.94;;;25.56;50.10
58018;BME280;43810;50.860;19.226;2023-08-31T10:48:59;98070.97;;;25.40;52.79
58018;BME280;43810;50.860;19.226;2023-08-31T10:51:27;98064.56;;;25.08;50.60
58018;BME280;43810;50.860;19.226;2023-08-31T10:54:11;98071.22;;;24.69;53.82
58018;BME280;43810;50.860;19.226;2023-08-31T10:59:17;98073.03;;;23.77;52.63
58018;BME280;43810;50.860;19.226;2023-08-31T11:01:53;98069.09;;;23.16;56.93
58018;BME280;43810;50.860;19.226;2023-08-31T11:04:29;98063.28;;;22.65;57.21
58018;BME280;43810;50.860;19.226;2023-08-31T11:09:43;98081.09;;;22.27;59.71
58018;BME280;43810;50.860;19.226;2023-08-31T11:12:10;98068.34;;;22.27;55.95
58018;BME280;43810;50.860;19.226;2023-08-31T11:14:36;98080.88;;;21.98;60.40
58018;BME280;43810;50.860;19.226;2023-08-31T11:17:02;98074.47;;;21.88;61.43
58018;BME280;43810;50.860;19.226;2023-08-31T11:19:31;98078.84;;;21.82;60.55
58018;BME280;43810;50.860;19.226;2023-08-31T11:21:58;98079.63;;;21.83;63.38
58018;BME280;43810;50.860;19.226;2023-08-31T11:24:25;98079.25;;;21.81;62.41
58018;BME280;43810;50.860;19.226;2023-08-31T11:26:51;98084.16;;;22.09;63.51
58018;BME280;43810;50.860;19.226;2023-08-31T11:29:17;98091.00;;;22.53;63.83
58018;BME280;43810;50.860;19.226;2023-08-31T11:31:43;98080.56;;;22.72;60.74
58018;BME280;43810;50.860;19.226;2023-08-31T11:34:14;98086.16;;;22.81;61.54
58018;BME280;43810;50.860;19.226;2023-08-31T11:36:42;98082.19;;;22.85;60.21
58018;BME280;43810;50.860;19.226;2023-08-31T11:39:12;98086.97;;;23.46;61.65
58018;BME280;43810;50.860;19.226;2023-08-31T11:41:38;98076.22;;;23.88;58.13
58018;BME280;43810;50.860;19.226;2023-08-31T11:44:08;98077.66;;;23.92;58.27
58018;BME280;43810;50.860;19.226;2023-08-31T11:46:39;98067.31;;;24.16;59.24
58018;BME280;43810;50.860;19.226;2023-08-31T11:49:06;98071.97;;;24.57;56.83
58018;BME280;43810;50.860;19.226;2023-08-31T11:51:33;98058.81;;;24.94;57.07
58018;BME280;43810;50.860;19.226;2023-08-31T11:54:03;98067.91;;;25.38;53.58
58018;BME280;43810;50.860;19.226;2023-08-31T11:56:43;98063.22;;;25.38;51.45
58018;BME280;43810;50.860;19.226;2023-08-31T11:59:15;98069.00;;;25.15;52.09
58018;BME280;43810;50.860;19.226;2023-08-31T12:01:42;98078.59;;;25.07;50.33
58018;BME280;43810;50.860;19.226;2023-08-31T12:06:41;98069.69;;;24.94;48.51
58018;BME280;43810;50.860;19.226;2023-08-31T12:09:10;98062.53;;;24.87;49.72
58018;BME280;43810;50.860;19.226;2023-08-31T12:11:36;98064.34;;;24.90;51.86
58018;BME280;43810;50.860;19.226;2023-08-31T12:14:18;98070.78;;;25.09;49.73
58018;BME280;43810;50.860;19.226;2023-08-31T12:16:44;98067.41;;;25.05;48.67
58018;BME280;43810;50.860;19.226;2023-08-31T12:19:10;98077.72;;;24.59;50.90
58018;BME280;43810;50.860;19.226;2023-08-31T12:21:36;98068.00;;;24.33;52.84
58018;BME280;43810;50.860;19.226;2023-08-31T12:24:02;98069.44;;;23.96;52.50
58018;BME280;43810;50.860;19.226;2023-08-31T12:26:29;98077.91;;;23.36;53.34
58018;BME280;43810;50.860;19.226;2023-08-31T12:28:55;98068.47;;;22.76;54.47
58018;BME280;43810;50.860;19.226;2023-08-31T12:31:22;98078.69;;;22.33;58.70
58018;BME280;43810;50.860;19.226;2023-08-31T12:33:48;98080.03;;;22.01;58.54
58018;BME280;43810;50.860;19.226;2023-08-31T12:36:14;98091.41;;;21.73;58.15
58018;BME280;43810;50.860;19.226;2023-08-31T12:38:40;98098.75;;;20.99;59.90
58018;BME280;43810;50.860;19.226;2023-08-31T12:41:07;98087.53;;;20.43;62.81
58018;BME280;43810;50.860;19.226;2023-08-31T12:43:34;98095.31;;;20.03;64.31
58018;BME280;43810;50.860;19.226;2023-08-31T12:46:00;98098.66;;;19.77;65.50
58018;BME280;43810;50.860;19.226;2023-08-31T12:48:26;98104.56;;;19.65;66.22
58018;BME280;43810;50.860;19.226;2023-08-31T12:50:52;98126.31;;;19.36;66.43
58018;BME280;43810;50.860;19.226;2023-08-31T12:53:22;98132.56;;;19.26;67.34
58018;BME280;43810;50.860;19.226;2023-08-31T12:55:48;98145.41;;;19.01;71.44
58018;BME280;43810;50.860;19.226;2023-08-31T12:58:16;98171.41;;;18.52;74.27
58018;BME280;43810;50.860;19.226;2023-08-31T13:00:41;98181.91;;;17.93;82.57
58018;BME280;43810;50.860;19.226;2023-08-31T13:03:12;98185.72;;;17.50;88.38
58018;BME280;43810;50.860;19.226;2023-08-31T13:05:39;98189.16;;;17.33;91.71